sensor_id;sensor_type;location;lat;lon;timestamp;pressure;altitude;pressure_sealevel;temperature;humidity
30110;BME280;14965;50.660;13.226;2023-04-09T00:00:01;95672.56;;;-0.09;97.79
30110;BME280;14965;50.660;13.226;2023-04-09T00:02:28;95670.56;;;-0.12;97.51
30110;BME280;14965;50.660;13.226;2023-04-09T00:04:55;95666.25;;;-0.13;97.49
30110;BME280;14965;50.660;13.226;2023-04-09T00:07:21;95661.19;;;-0.15;97.78
30110;BME280;14965;50.660;13.226;2023-04-09T00:09:47;95663.44;;;-0.17;97.63
30110;BME280;14965;50.660;13.226;2023-04-09T00:12:13;95666.50;;;-0.18;97.61
30110;BME280;14965;50.660;13.226;2023-04-09T00:14:39;95661.44;;;-0.20;97.65
30110;BME280;14965;50.660;13.226;2023-04-09T00:17:04;95657.13;;;-0.21;97.69
30110;BME280;14965;50.660;13.226;2023-04-09T00:19:30;95656.34;;;-0.21;97.85
30110;BME280;14965;50.660;13.226;2023-04-09T00:21:58;95655.13;;;-0.24;97.53
30110;BME280;14965;50.660;13.226;2023-04-09T00:24:24;95659.31;;;-0.27;97.47
30110;BME280;14965;50.660;13.226;2023-04-09T00:26:49;95655.03;;;-0.28;97.27
30110;BME280;14965;50.660;13.226;2023-04-09T00:29:15;95658.13;;;-0.29;97.33
30110;BME280;14965;50.660;13.226;2023-04-09T00:31:41;95650.31;;;-0.31;97.14
30110;BME280;14965;50.660;13.226;2023-04-09T00:34:07;95651.00;;;-0.34;97.07
30110;BME280;14965;50.660;13.226;2023-04-09T00:36:33;95646.72;;;-0.35;96.95
30110;BME280;14965;50.660;13.226;2023-04-09T00:39:00;95651.34;;;-0.35;97.07
30110;BME280;14965;50.660;13.226;2023-04-09T00:41:26;95651.34;;;-0.35;97.19
30110;BME280;14965;50.660;13.226;2023-04-09T00:43:51;95659.13;;;-0.34;96.95
30110;BME280;14965;50.660;13.226;2023-04-09T00:46:20;95652.13;;;-0.35;97.19
30110;BME280;14965;50.660;13.226;2023-04-09T00:48:46;95658.03;;;-0.33;97.14
30110;BME280;14965;50.660;13.226;2023-04-09T00:51:12;95655.31;;;-0.33;97.31
30110;BME280;14965;50.660;13.226;2023-04-09T00:53:38;95655.31;;;-0.33;97.17
30110;BME280;14965;50.660;13.226;2023-04-09T00:56:06;95652.13;;;-0.35;97.29
30110;BME280;14965;50.660;13.226;2023-04-09T00:58:32;95657.16;;;-0.37;97.14
30110;BME280;14965;50.660;13.226;2023-04-09T01:00:58;95662.03;;;-0.42;97.13
30110;BME280;14965;50.660;13.226;2023-04-09T01:03:24;95656.06;;;-0.48;97.01
30110;BME280;14965;50.660;13.226;2023-04-09T01:05:59;95657.91;;;-0.52;97.02
30110;BME280;14965;50.660;13.226;2023-04-09T01:08:37;95645.81;;;-0.55;96.87
30110;BME280;14965;50.660;13.226;2023-04-09T01:11:17;95652.75;;;-0.57;96.92
30110;BME280;14965;50.660;13.226;2023-04-09T01:13:48;95658.41;;;-0.62;96.97
30110;BME280;14965;50.660;13.226;2023-04-09T01:16:18;95652.69;;;-0.73;97.15
30110;BME280;14965;50.660;13.226;2023-04-09T01:18:55;95660.72;;;-0.77;97.57
30110;BME280;14965;50.660;13.226;2023-04-09T01:21:28;95656.88;;;-0.76;97.93
30110;BME280;14965;50.660;13.226;2023-04-09T01:24:08;95647.28;;;-0.73;98.00
30110;BME280;14965;50.660;13.226;2023-04-09T01:26:53;95650.78;;;-0.72;97.86
30110;BME280;14965;50.660;13.226;2023-04-09T01:29:24;95648.94;;;-0.68;98.23
30110;BME280;14965;50.660;13.226;2023-04-09T01:31:53;95653.59;;;-0.69;98.05
30110;BME280;14965;50.660;13.226;2023-04-09T01:34:20;95643.09;;;-0.70;98.04
30110;BME280;14965;50.660;13.226;2023-04-09T01:36:52;95656.19;;;-0.72;97.79
30110;BME280;14965;50.660;13.226;2023-04-09T01:39:20;95655.06;;;-0.71;97.73
30110;BME280;14965;50.660;13.226;2023-04-09T01:41:47;95659.38;;;-0.70;97.84
30110;BME280;14965;50.660;13.226;2023-04-09T01:44:16;95654.72;;;-0.70;97.61
30110;BME280;14965;50.660;13.226;2023-04-09T01:46:45;95661.28;;;-0.71;97.39
30110;BME280;14965;50.660;13.226;2023-04-09T01:49:12;95662.41;;;-0.72;97.41
30110;BME280;14965;50.660;13.226;2023-04-09T01:51:39;95663.19;;;-0.71;97.09
30110;BME280;14965;50.660;13.226;2023-04-09T01:54:05;95653.94;;;-0.70;97.29
30110;BME280;14965;50.660;13.226;2023-04-09T01:56:40;95656.28;;;-0.69;97.43
30110;BME280;14965;50.660;13.226;2023-04-09T01:59:06;95657.88;;;-0.68;97.40
30110;BME280;14965;50.660;13.226;2023-04-09T02:01:38;95655.94;;;-0.67;97.33
30110;BME280;14965;50.660;13.226;2023-04-09T02:04:15;95652.78;;;-0.69;97.15
30110;BME280;14965;50.660;13.226;2023-04-09T02:06:47;95655.50;;;-0.69;97.12
30110;BME280;14965;50.660;13.226;2023-04-09T02:09:20;95650.97;;;-0.65;97.52
30110;BME280;14965;50.660;13.226;2023-04-09T02:11:48;95662.81;;;-0.58;97.11
30110;BME280;14965;50.660;13.226;2023-04-09T02:14:16;95654.75;;;-0.54;97.13
30110;BME280;14965;50.660;13.226;2023-04-09T02:16:45;95659.81;;;-0.53;96.97
30110;BME280;14965;50.660;13.226;2023-04-09T02:19:13;95659.03;;;-0.53;96.94
30110;BME280;14965;50.660;13.226;2023-04-09T02:21:39;95666.03;;;-0.52;96.58
30110;BME280;14965;50.660;13.226;2023-04-09T02:24:05;95656.75;;;-0.51;96.59
30110;BME280;14965;50.660;13.226;2023-04-09T02:26:31;95663.78;;;-0.50;96.60
30110;BME280;14965;50.660;13.226;2023-04-09T02:28:57;95670.78;;;-0.49;96.55
30110;BME280;14965;50.660;13.226;2023-04-09T02:31:23;95674.19;;;-0.52;96.43
30110;BME280;14965;50.660;13.226;2023-04-09T02:33:50;95675.59;;;-0.58;96.38
30110;BME280;14965;50.660;13.226;2023-04-09T02:36:17;95673.47;;;-0.65;97.01
30110;BME280;14965;50.660;13.226;2023-04-09T02:38:43;95685.34;;;-0.69;96.92
30110;BME280;14965;50.660;13.226;2023-04-09T02:41:09;95679.38;;;-0.75;96.92
30110;BME280;14965;50.660;13.226;2023-04-09T02:43:35;95671.16;;;-0.79;96.83
30110;BME280;14965;50.660;13.226;2023-04-09T02:46:02;95677.78;;;-0.76;97.32
30110;BME280;14965;50.660;13.226;2023-04-09T02:48:29;95679.72;;;-0.77;97.41
30110;BME280;14965;50.660;13.226;2023-04-09T02:50:55;95668.44;;;-0.79;97.52
30110;BME280;14965;50.660;13.226;2023-04-09T02:53:23;95669.31;;;-0.74;97.51
30110;BME280;14965;50.660;13.226;2023-04-09T02:55:49;95662.06;;;-0.70;97.94
30110;BME280;14965;50.660;13.226;2023-04-09T02:58:14;95668.28;;;-0.70;97.78
30110;BME280;14965;50.660;13.226;2023-04-09T03:00:40;95665.56;;;-0.70;97.86
30110;BME280;14965;50.660;13.226;2023-04-09T03:03:06;95660.56;;;-0.68;98.08
30110;BME280;14965;50.660;13.226;2023-04-09T03:05:32;95672.78;;;-0.62;98.15
30110;BME280;14965;50.660;13.226;2023-04-09T03:07:58;95682.56;;;-0.57;98.30
30110;BME280;14965;50.660;13.226;2023-04-09T03:10:26;95678.38;;;-0.55;98.11
30110;BME280;14965;50.660;13.226;2023-04-09T03:12:53;95663.50;;;-0.61;98.04
30110;BME280;14965;50.660;13.226;2023-04-09T03:15:18;95670.06;;;-0.62;98.08
30110;BME280;14965;50.660;13.226;2023-04-09T03:17:44;95664.19;;;-0.64;98.55
30110;BME280;14965;50.660;13.226;2023-04-09T03:20:10;95664.63;;;-0.62;98.48
30110;BME280;14965;50.660;13.226;2023-04-09T03:22:37;95674.44;;;-0.57;98.48
30110;BME280;14965;50.660;13.226;2023-04-09T03:25:04;95669.00;;;-0.57;98.46
30110;BME280;14965;50.660;13.226;2023-04-09T03:27:32;95665.84;;;-0.59;98.70
30110;BME280;14965;50.660;13.226;2023-04-09T03:29:58;95666.63;;;-0.59;98.62
30110;BME280;14965;50.660;13.226;2023-04-09T03:32:24;95662.09;;;-0.55;98.71
30110;BME280;14965;50.660;13.226;2023-04-09T03:34:50;95658.34;;;-0.50;98.83
30110;BME280;14965;50.660;13.226;2023-04-09T03:37:16;95664.66;;;-0.46;98.80
30110;BME280;14965;50.660;13.226;2023-04-09T03:39:42;95654.59;;;-0.45;98.36
30110;BME280;14965;50.660;13.226;2023-04-09T03:42:08;95642.97;;;-0.46;98.31
30110;BME280;14965;50.660;13.226;2023-04-09T03:44:35;95649.97;;;-0.45;98.28
30110;BME280;14965;50.660;13.226;2023-04-09T03:47:01;95649.16;;;-0.45;98.08
30110;BME280;14965;50.660;13.226;2023-04-09T03:49:27;95660.81;;;-0.45;98.20
30110;BME280;14965;50.660;13.226;2023-04-09T03:51:53;95653.34;;;-0.48;97.79
30110;BME280;14965;50.660;13.226;2023-04-09T03:54:19;95653.72;;;-0.49;97.84
30110;BME280;14965;50.660;13.226;2023-04-09T03:56:45;95657.63;;;-0.47;97.77
30110;BME280;14965;50.660;13.226;2023-04-09T03:59:11;95649.25;;;-0.42;98.11
30110;BME280;14965;50.660;13.226;2023-04-09T04:01:38;95652.81;;;-0.38;97.85
30110;BME280;14965;50.660;13.226;2023-04-09T04:04:04;95664.56;;;-0.34;98.32
30110;BME280;14965;50.660;13.226;2023-04-09T04:06:32;95656.09;;;-0.32;97.94
30110;BME280;14965;50.660;13.226;2023-04-09T04:08:58;95656.44;;;-0.34;97.76
30110;BME280;14965;50.660;13.226;2023-04-09T04:11:24;95660.75;;;-0.33;97.91
30110;BME280;14965;50.660;13.226;2023-04-09T04:13:50;95666.25;;;-0.29;98.07
30110;BME280;14965;50.660;13.226;2023-04-09T04:16:16;95664.75;;;-0.27;98.03
30110;BME280;14965;50.660;13.226;2023-04-09T04:18:43;95670.63;;;-0.24;98.22
30110;BME280;14965;50.660;13.226;2023-04-09T04:21:12;95667.56;;;-0.23;98.46
30110;BME280;14965;50.660;13.226;2023-04-09T04:23:38;95667.66;;;-0.19;98.11
30110;BME280;14965;50.660;13.226;2023-04-09T04:26:06;95666.50;;;-0.18;98.32
30110;BME280;14965;50.660;13.226;2023-04-09T04:28:32;95685.97;;;-0.16;98.39
30110;BME280;14965;50.660;13.226;2023-04-09T04:30:58;95674.75;;;-0.15;98.63
30110;BME280;14965;50.660;13.226;2023-04-09T04:33:24;95676.00;;;-0.12;98.57
30110;BME280;14965;50.660;13.226;2023-04-09T04:35:51;95675.28;;;-0.09;98.27
30110;BME280;14965;50.660;13.226;2023-04-09T04:38:17;95680.38;;;-0.08;98.64
30110;BME280;14965;50.660;13.226;2023-04-09T04:40:43;95683.50;;;-0.06;98.42
30110;BME280;14965;50.660;13.226;2023-04-09T04:43:09;95671.97;;;-0.03;98.77
30110;BME280;14965;50.660;13.226;2023-04-09T04:45:35;95679.03;;;0.02;98.64
30110;BME280;14965;50.660;13.226;2023-04-09T04:48:00;95682.28;;;0.08;98.81
30110;BME280;14965;50.660;13.226;2023-04-09T04:50:26;95679.66;;;0.11;98.69
30110;BME280;14965;50.660;13.226;2023-04-09T04:52:54;95680.19;;;0.17;98.91
30110;BME280;14965;50.660;13.226;2023-04-09T04:55:19;95677.13;;;0.18;98.77
30110;BME280;14965;50.660;13.226;2023-04-09T04:57:45;95680.25;;;0.20;98.26
30110;BME280;14965;50.660;13.226;2023-04-09T05:00:13;95682.97;;;0.20;98.74
30110;BME280;14965;50.660;13.226;2023-04-09T05:02:38;95685.34;;;0.22;98.14
30110;BME280;14965;50.660;13.226;2023-04-09T05:05:05;95683.06;;;0.24;98.03
30110;BME280;14965;50.660;13.226;2023-04-09T05:07:32;95687.78;;;0.27;98.20
30110;BME280;14965;50.660;13.226;2023-04-09T05:09:59;95682.78;;;0.29;98.36
30110;BME280;14965;50.660;13.226;2023-04-09T05:12:25;95687.97;;;0.34;98.21
30110;BME280;14965;50.660;13.226;2023-04-09T05:14:51;95690.78;;;0.38;98.55
30110;BME280;14965;50.660;13.226;2023-04-09T05:17:17;95694.69;;;0.40;98.53
30110;BME280;14965;50.660;13.226;2023-04-09T05:19:43;95683.13;;;0.43;98.18
30110;BME280;14965;50.660;13.226;2023-04-09T05:22:08;95694.88;;;0.47;97.96
30110;BME280;14965;50.660;13.226;2023-04-09T05:24:34;95693.38;;;0.50;98.25
30110;BME280;14965;50.660;13.226;2023-04-09T05:27:01;95695.91;;;0.59;98.05
30110;BME280;14965;50.660;13.226;2023-04-09T05:29:27;95698.34;;;0.64;97.79
30110;BME280;14965;50.660;13.226;2023-04-09T05:31:53;95696.13;;;0.69;98.07
30110;BME280;14965;50.660;13.226;2023-04-09T05:34:19;95698.56;;;0.74;97.99
30110;BME280;14965;50.660;13.226;2023-04-09T05:36:45;95695.53;;;0.76;97.35
30110;BME280;14965;50.660;13.226;2023-04-09T05:39:10;95694.78;;;0.79;97.18
30110;BME280;14965;50.660;13.226;2023-04-09T05:41:36;95701.09;;;0.83;97.52
30110;BME280;14965;50.660;13.226;2023-04-09T05:44:04;95709.88;;;0.92;97.13
30110;BME280;14965;50.660;13.226;2023-04-09T05:46:30;95709.38;;;1.06;97.40
30110;BME280;14965;50.660;13.226;2023-04-09T05:48:55;95704.13;;;1.17;97.28
30110;BME280;14965;50.660;13.226;2023-04-09T05:51:21;95704.00;;;1.29;96.83
30110;BME280;14965;50.660;13.226;2023-04-09T05:53:47;95709.38;;;1.45;96.33
30110;BME280;14965;50.660;13.226;2023-04-09T05:56:14;95709.66;;;1.59;96.28
30110;BME280;14965;50.660;13.226;2023-04-09T05:58:40;95708.22;;;1.65;95.02
30110;BME280;14965;50.660;13.226;2023-04-09T06:01:07;95708.28;;;1.69;94.94
30110;BME280;14965;50.660;13.226;2023-04-09T06:03:33;95710.72;;;1.74;95.11
30110;BME280;14965;50.660;13.226;2023-04-09T06:05:59;95705.34;;;1.78;95.29
30110;BME280;14965;50.660;13.226;2023-04-09T06:08:24;95706.97;;;1.82;95.06
30110;BME280;14965;50.660;13.226;2023-04-09T06:10:50;95710.16;;;1.88;95.10
30110;BME280;14965;50.660;13.226;2023-04-09T06:13:16;95709.47;;;1.91;95.78
30110;BME280;14965;50.660;13.226;2023-04-09T06:15:42;95706.38;;;1.92;95.65
30110;BME280;14965;50.660;13.226;2023-04-09T06:18:09;95705.16;;;1.90;95.26
30110;BME280;14965;50.660;13.226;2023-04-09T06:20:35;95709.84;;;1.89;95.54
30110;BME280;14965;50.660;13.226;2023-04-09T06:23:01;95705.88;;;1.87;95.00
30110;BME280;14965;50.660;13.226;2023-04-09T06:25:26;95703.16;;;1.87;95.08
30110;BME280;14965;50.660;13.226;2023-04-09T06:27:52;95710.16;;;1.88;95.88
30110;BME280;14965;50.660;13.226;2023-04-09T06:30:18;95701.75;;;1.96;95.84
30110;BME280;14965;50.660;13.226;2023-04-09T06:32:44;95715.19;;;2.05;95.89
30110;BME280;14965;50.660;13.226;2023-04-09T06:35:11;95711.19;;;2.22;96.08
30110;BME280;14965;50.660;13.226;2023-04-09T06:37:37;95716.59;;;2.45;96.67
30110;BME280;14965;50.660;13.226;2023-04-09T06:40:03;95718.50;;;2.67;96.61
30110;BME280;14965;50.660;13.226;2023-04-09T06:42:29;95720.75;;;2.88;95.61
30110;BME280;14965;50.660;13.226;2023-04-09T06:44:55;95722.97;;;3.06;94.76
30110;BME280;14965;50.660;13.226;2023-04-09T06:47:21;95714.59;;;3.21;94.65
30110;BME280;14965;50.660;13.226;2023-04-09T06:49:47;95711.63;;;3.34;94.09
30110;BME280;14965;50.660;13.226;2023-04-09T06:52:14;95714.00;;;3.35;93.46
30110;BME280;14965;50.660;13.226;2023-04-09T06:54:41;95717.59;;;3.43;93.50
30110;BME280;14965;50.660;13.226;2023-04-09T06:57:07;95723.13;;;3.50;93.08
30110;BME280;14965;50.660;13.226;2023-04-09T06:59:33;95726.66;;;3.50;93.18
30110;BME280;14965;50.660;13.226;2023-04-09T07:01:59;95718.16;;;3.56;92.85
30110;BME280;14965;50.660;13.226;2023-04-09T07:04:25;95731.56;;;3.68;93.17
30110;BME280;14965;50.660;13.226;2023-04-09T07:06:51;95726.66;;;3.84;92.56
30110;BME280;14965;50.660;13.226;2023-04-09T07:09:19;95734.63;;;4.00;92.07
30110;BME280;14965;50.660;13.226;2023-04-09T07:11:45;95736.34;;;4.15;90.90
30110;BME280;14965;50.660;13.226;2023-04-09T07:14:11;95732.97;;;4.29;90.68
30110;BME280;14965;50.660;13.226;2023-04-09T07:16:37;95732.25;;;4.36;90.04
30110;BME280;14965;50.660;13.226;2023-04-09T07:19:03;95730.63;;;4.28;89.50
30110;BME280;14965;50.660;13.226;2023-04-09T07:21:29;95730.47;;;4.13;90.21
30110;BME280;14965;50.660;13.226;2023-04-09T07:23:55;95733.16;;;4.06;90.37
30110;BME280;14965;50.660;13.226;2023-04-09T07:26:22;95734.31;;;4.09;90.48
30110;BME280;14965;50.660;13.226;2023-04-09T07:28:47;95735.56;;;4.15;89.31
30110;BME280;14965;50.660;13.226;2023-04-09T07:31:13;95728.97;;;4.19;88.86
30110;BME280;14965;50.660;13.226;2023-04-09T07:33:39;95738.34;;;4.22;88.92
30110;BME280;14965;50.660;13.226;2023-04-09T07:36:05;95725.06;;;4.20;89.08
30110;BME280;14965;50.660;13.226;2023-04-09T07:38:31;95730.19;;;4.25;88.95
30110;BME280;14965;50.660;13.226;2023-04-09T07:40:57;95717.34;;;4.30;88.20
30110;BME280;14965;50.660;13.226;2023-04-09T07:43:24;95717.41;;;4.37;87.64
30110;BME280;14965;50.660;13.226;2023-04-09T07:45:50;95716.66;;;4.40;88.19
30110;BME280;14965;50.660;13.226;2023-04-09T07:48:16;95716.25;;;4.38;87.13
30110;BME280;14965;50.660;13.226;2023-04-09T07:50:42;95717.44;;;4.40;87.65
30110;BME280;14965;50.660;13.226;2023-04-09T07:53:07;95718.28;;;4.48;87.96
30110;BME280;14965;50.660;13.226;2023-04-09T07:55:33;95718.38;;;4.59;88.19
30110;BME280;14965;50.660;13.226;2023-04-09T07:57:59;95720.41;;;4.69;88.04
30110;BME280;14965;50.660;13.226;2023-04-09T08:00:26;95714.25;;;4.83;88.11
30110;BME280;14965;50.660;13.226;2023-04-09T08:02:52;95721.78;;;5.00;87.69
30110;BME280;14965;50.660;13.226;2023-04-09T08:05:18;95717.56;;;5.13;86.21
30110;BME280;14965;50.660;13.226;2023-04-09T08:07:44;95712.19;;;5.35;85.91
30110;BME280;14965;50.660;13.226;2023-04-09T08:10:10;95711.94;;;5.68;85.05
30110;BME280;14965;50.660;13.226;2023-04-09T08:12:35;95708.56;;;6.00;84.83
30110;BME280;14965;50.660;13.226;2023-04-09T08:15:01;95704.69;;;6.26;83.64
30110;BME280;14965;50.660;13.226;2023-04-09T08:17:29;95715.69;;;6.51;82.22
30110;BME280;14965;50.660;13.226;2023-04-09T08:19:55;95711.00;;;6.66;81.24
30110;BME280;14965;50.660;13.226;2023-04-09T08:22:21;95717.66;;;6.65;80.27
30110;BME280;14965;50.660;13.226;2023-04-09T08:24:52;95714.13;;;6.61;81.73
30110;BME280;14965;50.660;13.226;2023-04-09T08:27:18;95720.38;;;6.68;79.96
30110;BME280;14965;50.660;13.226;2023-04-09T08:29:44;95719.59;;;7.00;79.29
30110;BME280;14965;50.660;13.226;2023-04-09T08:32:10;95715.25;;;7.28;78.83
30110;BME280;14965;50.660;13.226;2023-04-09T08:34:37;95715.56;;;7.44;74.48
30110;BME280;14965;50.660;13.226;2023-04-09T08:37:03;95719.47;;;7.54;72.41
30110;BME280;14965;50.660;13.226;2023-04-09T08:39:29;95723.00;;;7.54;71.95
30110;BME280;14965;50.660;13.226;2023-04-09T08:41:58;95726.16;;;7.49;71.27
30110;BME280;14965;50.660;13.226;2023-04-09T08:44:25;95724.56;;;7.62;72.95
30110;BME280;14965;50.660;13.226;2023-04-09T08:46:51;95717.44;;;7.76;71.25
30110;BME280;14965;50.660;13.226;2023-04-09T08:49:17;95716.56;;;7.89;72.62
30110;BME280;14965;50.660;13.226;2023-04-09T08:51:47;95719.56;;;8.20;72.18
30110;BME280;14965;50.660;13.226;2023-04-09T08:54:15;95720.25;;;8.35;70.92
30110;BME280;14965;50.660;13.226;2023-04-09T08:56:41;95723.31;;;8.51;69.75
30110;BME280;14965;50.660;13.226;2023-04-09T08:59:08;95717.50;;;8.42;68.35
30110;BME280;14965;50.660;13.226;2023-04-09T09:01:34;95713.94;;;8.45;69.15
30110;BME280;14965;50.660;13.226;2023-04-09T09:04:02;95716.72;;;8.41;70.02
30110;BME280;14965;50.660;13.226;2023-04-09T09:06:30;95716.69;;;8.45;70.52
30110;BME280;14965;50.660;13.226;2023-04-09T09:09:04;95716.22;;;8.57;69.50
30110;BME280;14965;50.660;13.226;2023-04-09T09:11:31;95713.00;;;8.66;68.79
30110;BME280;14965;50.660;13.226;2023-04-09T09:13:59;95716.53;;;8.66;68.87
30110;BME280;14965;50.660;13.226;2023-04-09T09:16:25;95710.16;;;8.73;69.82
30110;BME280;14965;50.660;13.226;2023-04-09T09:18:52;95712.44;;;8.82;68.50
30110;BME280;14965;50.660;13.226;2023-04-09T09:21:18;95716.78;;;8.83;68.78
30110;BME280;14965;50.660;13.226;2023-04-09T09:23:45;95717.09;;;8.92;69.01
30110;BME280;14965;50.660;13.226;2023-04-09T09:26:13;95720.47;;;8.65;66.94
30110;BME280;14965;50.660;13.226;2023-04-09T09:28:40;95713.78;;;8.63;68.25
30110;BME280;14965;50.660;13.226;2023-04-09T09:31:11;95717.06;;;8.43;68.87
30110;BME280;14965;50.660;13.226;2023-04-09T09:33:37;95717.38;;;8.56;69.35
30110;BME280;14965;50.660;13.226;2023-04-09T09:36:04;95719.63;;;8.72;67.77
30110;BME280;14965;50.660;13.226;2023-04-09T09:38:30;95710.13;;;8.80;67.17
30110;BME280;14965;50.660;13.226;2023-04-09T09:40:57;95720.50;;;9.07;66.75
30110;BME280;14965;50.660;13.226;2023-04-09T09:43:38;95697.03;;;9.33;67.33
30110;BME280;14965;50.660;13.226;2023-04-09T09:46:06;95698.47;;;9.44;65.98
30110;BME280;14965;50.660;13.226;2023-04-09T09:48:33;95701.94;;;9.14;65.78
30110;BME280;14965;50.660;13.226;2023-04-09T09:51:00;95710.94;;;8.73;66.31
30110;BME280;14965;50.660;13.226;2023-04-09T09:53:31;95712.06;;;8.83;66.48
30110;BME280;14965;50.660;13.226;2023-04-09T09:55:59;95707.63;;;8.93;65.88
30110;BME280;14965;50.660;13.226;2023-04-09T09:58:33;95703.78;;;9.28;64.86
30110;BME280;14965;50.660;13.226;2023-04-09T10:01:02;95700.19;;;9.65;62.84
30110;BME280;14965;50.660;13.226;2023-04-09T10:03:34;95707.25;;;9.70;63.50
30110;BME280;14965;50.660;13.226;2023-04-09T10:06:02;95689.31;;;9.85;63.47
30110;BME280;14965;50.660;13.226;2023-04-09T10:08:30;95691.56;;;9.94;65.08
30110;BME280;14965;50.660;13.226;2023-04-09T10:10:57;95688.75;;;9.67;62.76
30110;BME280;14965;50.660;13.226;2023-04-09T10:13:33;95691.06;;;9.72;62.67
30110;BME280;14965;50.660;13.226;2023-04-09T10:16:00;95688.34;;;9.68;62.95
30110;BME280;14965;50.660;13.226;2023-04-09T10:18:26;95690.19;;;9.44;65.39
30110;BME280;14965;50.660;13.226;2023-04-09T10:20:58;95685.56;;;9.38;64.91
30110;BME280;14965;50.660;13.226;2023-04-09T10:23:35;95680.91;;;9.28;66.63
30110;BME280;14965;50.660;13.226;2023-04-09T10:26:02;95680.16;;;9.61;66.52
30110;BME280;14965;50.660;13.226;2023-04-09T10:28:30;95680.44;;;9.70;62.82
30110;BME280;14965;50.660;13.226;2023-04-09T10:30:57;95680.28;;;9.51;61.92
30110;BME280;14965;50.660;13.226;2023-04-09T10:33:25;95670.88;;;9.44;62.55
30110;BME280;14965;50.660;13.226;2023-04-09T10:35:53;95670.88;;;9.79;62.95
30110;BME280;14965;50.660;13.226;2023-04-09T10:38:33;95669.44;;;10.28;61.19
30110;BME280;14965;50.660;13.226;2023-04-09T10:41:06;95672.59;;;10.00;60.36
30110;BME280;14965;50.660;13.226;2023-04-09T10:43:36;95668.22;;;9.37;61.04
30110;BME280;14965;50.660;13.226;2023-04-09T10:46:06;95669.16;;;9.23;63.36
30110;BME280;14965;50.660;13.226;2023-04-09T10:48:33;95669.38;;;9.02;61.70
30110;BME280;14965;50.660;13.226;2023-04-09T10:51:02;95673.38;;;8.94;62.09
30110;BME280;14965;50.660;13.226;2023-04-09T10:53:28;95662.16;;;9.15;62.09
30110;BME280;14965;50.660;13.226;2023-04-09T10:55:55;95669.41;;;9.36;60.78
30110;BME280;14965;50.660;13.226;2023-04-09T10:58:21;95657.38;;;9.57;59.53
30110;BME280;14965;50.660;13.226;2023-04-09T11:00:50;95655.59;;;9.74;59.22
30110;BME280;14965;50.660;13.226;2023-04-09T11:03:23;95657.50;;;9.77;58.41
30110;BME280;14965;50.660;13.226;2023-04-09T11:05:58;95658.56;;;9.87;59.05
30110;BME280;14965;50.660;13.226;2023-04-09T11:08:28;95658.16;;;9.88;56.85
30110;BME280;14965;50.660;13.226;2023-04-09T11:10:55;95656.59;;;9.87;57.81
30110;BME280;14965;50.660;13.226;2023-04-09T11:13:21;95652.72;;;10.12;57.94
30110;BME280;14965;50.660;13.226;2023-04-09T11:15:48;95657.03;;;10.40;56.45
30110;BME280;14965;50.660;13.226;2023-04-09T11:18:19;95653.66;;;10.29;55.78
30110;BME280;14965;50.660;13.226;2023-04-09T11:20:46;95652.03;;;10.04;57.17
30110;BME280;14965;50.660;13.226;2023-04-09T11:23:16;95655.28;;;10.26;55.96
30110;BME280;14965;50.660;13.226;2023-04-09T11:25:47;95651.03;;;10.18;55.91
30110;BME280;14965;50.660;13.226;2023-04-09T11:28:13;95654.63;;;10.15;57.29
30110;BME280;14965;50.660;13.226;2023-04-09T11:30:39;95650.19;;;10.21;55.50
30110;BME280;14965;50.660;13.226;2023-04-09T11:33:07;95653.00;;;10.17;54.96
30110;BME280;14965;50.660;13.226;2023-04-09T11:35:34;95647.59;;;10.10;54.54
30110;BME280;14965;50.660;13.226;2023-04-09T11:38:00;95648.78;;;10.09;54.87
30110;BME280;14965;50.660;13.226;2023-04-09T11:40:26;95650.97;;;9.94;53.73
30110;BME280;14965;50.660;13.226;2023-04-09T11:42:54;95655.25;;;9.68;54.51
30110;BME280;14965;50.660;13.226;2023-04-09T11:45:24;95647.06;;;9.61;55.72
30110;BME280;14965;50.660;13.226;2023-04-09T11:47:51;95658.66;;;9.49;56.14
30110;BME280;14965;50.660;13.226;2023-04-09T11:50:21;95656.66;;;9.50;55.12
30110;BME280;14965;50.660;13.226;2023-04-09T11:52:48;95655.47;;;9.51;57.23
30110;BME280;14965;50.660;13.226;2023-04-09T11:55:23;95653.91;;;9.50;55.88
30110;BME280;14965;50.660;13.226;2023-04-09T11:57:51;95655.31;;;9.61;54.92
30110;BME280;14965;50.660;13.226;2023-04-09T12:00:19;95651.41;;;9.89;54.64
30110;BME280;14965;50.660;13.226;2023-04-09T12:02:48;95648.66;;;10.20;55.34
30110;BME280;14965;50.660;13.226;2023-04-09T12:05:24;95648.19;;;10.25;53.36
30110;BME280;14965;50.660;13.226;2023-04-09T12:07:55;95659.81;;;10.09;53.84
30110;BME280;14965;50.660;13.226;2023-04-09T12:10:26;95647.22;;;10.08;52.90
30110;BME280;14965;50.660;13.226;2023-04-09T12:12:52;95650.34;;;10.10;49.53
30110;BME280;14965;50.660;13.226;2023-04-09T12:15:22;95653.75;;;10.21;50.61
30110;BME280;14965;50.660;13.226;2023-04-09T12:17:52;95661.38;;;10.10;50.27
30110;BME280;14965;50.660;13.226;2023-04-09T12:20:33;95661.94;;;9.98;52.50
30110;BME280;14965;50.660;13.226;2023-04-09T12:23:01;95662.50;;;9.86;52.38
30110;BME280;14965;50.660;13.226;2023-04-09T12:25:28;95650.13;;;9.70;52.68
30110;BME280;14965;50.660;13.226;2023-04-09T12:27:55;95655.97;;;9.72;54.21
30110;BME280;14965;50.660;13.226;2023-04-09T12:30:22;95654.69;;;9.81;53.68
30110;BME280;14965;50.660;13.226;2023-04-09T12:32:47;95649.59;;;9.79;54.64
30110;BME280;14965;50.660;13.226;2023-04-09T12:35:14;95651.97;;;9.77;53.21
30110;BME280;14965;50.660;13.226;2023-04-09T12:37:41;95656.72;;;9.77;54.61
30110;BME280;14965;50.660;13.226;2023-04-09T12:40:08;95659.63;;;9.96;54.23
30110;BME280;14965;50.660;13.226;2023-04-09T12:42:34;95663.41;;;10.06;53.24
30110;BME280;14965;50.660;13.226;2023-04-09T12:45:00;95654.91;;;9.93;53.29
30110;BME280;14965;50.660;13.226;2023-04-09T12:47:26;95656.13;;;9.92;53.51
30110;BME280;14965;50.660;13.226;2023-04-09T12:49:53;95656.47;;;9.94;54.31
30110;BME280;14965;50.660;13.226;2023-04-09T12:52:19;95660.19;;;10.11;53.81
30110;BME280;14965;50.660;13.226;2023-04-09T12:54:46;95654.53;;;10.22;53.27